Time;durP1;ratioP1;P1;durP2;ratioP2;P2;SDS_P1;SDS_P2;PMS_P1;PMS_P2;Temp;Humidity;BMP_temperature;BMP_pressure;BME280_temperature;BME280_humidity;BME280_pressure;Samples;Min_cycle;Max_cycle;Signal;HPM_P1;HPM_P2
2021/11/10 00:02:03;;;;;;;;;;;;;;;5.08;79.35;99680.18;1696056;84;24756;-86
2021/11/10 00:04:29;;;;;;;;;;;;;;;5.11;79.34;99674.92;1697521;83;21919;-86
2021/11/10 00:06:55;;;;;;;;;;;;;;;5.10;79.37;99678.41;1697793;84;26822;-86
2021/11/10 00:09:21;;;;;;;;;;;;;;;5.10;79.39;99674.52;1696882;84;24519;-85
2021/11/10 00:11:47;;;;;;;;;;;;;;;5.08;79.41;99671.10;1685345;83;20212;-85
2021/11/10 00:14:14;;;;;;;;;;;;;;;5.08;79.42;99671.95;1668202;85;20792;-85
2021/11/10 00:16:40;;;;;;;;;;;;;;;5.04;79.47;99666.45;1667296;85;21986;-86
2021/11/10 00:19:09;;;;;;;;;;;;;;;4.98;79.46;99671.37;1665188;85;26036;-86
2021/11/10 00:21:35;;;;;;;;;;;;;;;5.02;79.46;99670.83;1666635;85;24373;-85
2021/11/10 00:24:01;;;;;;;;;;;;;;;4.97;79.46;99677.88;1666981;84;20207;-85
2021/11/10 00:26:34;;;;;;;;;;;;;;;5.03;79.48;99672.53;1667743;85;25480;-85
2021/11/10 00:29:00;;;;;;;;;;;;;;;5.10;79.49;99675.37;1667797;84;22028;-85
2021/11/10 00:31:29;;;;;;;;;;;;;;;5.11;79.50;99673.19;1667548;85;26940;-85
2021/11/10 00:33:55;;;;;;;;;;;;;;;5.15;79.53;99672.64;1667987;84;24434;-85
2021/11/10 00:36:21;;;;;;;;;;;;;;;5.03;79.52;99672.09;1662129;85;20258;-85
2021/11/10 00:38:47;;;;;;;;;;;;;;;4.98;79.50;99685.63;1668806;84;24224;-86
2021/11/10 00:41:16;;;;;;;;;;;;;;;5.00;79.47;99672.63;1665388;85;22119;-86
2021/11/10 00:43:51;;;;;;;;;;;;;;;5.01;79.47;99671.74;1667354;85;26804;-86
2021/11/10 00:46:18;;;;;;;;;;;;;;;4.88;79.44;99666.47;1666809;85;24497;-86
2021/11/10 00:48:44;;;;;;;;;;;;;;;4.77;79.39;99664.61;1667773;85;20509;-85
2021/11/10 00:51:10;;;;;;;;;;;;;;;4.71;79.34;99660.44;1666594;85;24765;-84
2021/11/10 00:53:36;;;;;;;;;;;;;;;4.66;79.30;99664.05;1664801;85;22056;-84
2021/11/10 00:56:03;;;;;;;;;;;;;;;4.55;79.29;99665.18;1662034;85;26628;-84
2021/11/10 00:58:29;;;;;;;;;;;;;;;4.50;79.25;99660.56;1664932;85;24585;-85
2021/11/10 01:00:55;;;;;;;;;;;;;;;4.58;79.25;99663.79;1666495;85;20339;-85
2021/11/10 01:03:23;;;;;;;;;;;;;;;4.62;79.26;99656.36;1667938;85;24757;-85
2021/11/10 01:05:50;;;;;;;;;;;;;;;4.51;79.25;99654.49;1668182;85;22744;-85
2021/11/10 01:08:18;;;;;;;;;;;;;;;4.49;79.24;99658.00;1665446;85;26039;-85
2021/11/10 01:10:45;;;;;;;;;;;;;;;4.53;79.22;99645.36;1665579;85;24627;-85
2021/11/10 01:13:11;;;;;;;;;;;;;;;4.48;79.23;99637.70;1685220;84;20350;-85
2021/11/10 01:15:39;;;;;;;;;;;;;;;4.44;79.22;99637.83;1705786;82;24940;-86
2021/11/10 01:18:05;;;;;;;;;;;;;;;4.45;79.20;99644.72;1704062;83;22034;-85
2021/11/10 01:20:31;;;;;;;;;;;;;;;4.46;79.19;99645.98;1706070;83;26028;-85
2021/11/10 01:22:59;;;;;;;;;;;;;;;4.46;79.17;99642.09;1706206;82;24474;-86
2021/11/10 01:25:25;;;;;;;;;;;;;;;4.45;79.18;99648.61;1705533;83;20547;-86
2021/11/10 01:27:52;;;;;;;;;;;;;;;4.39;79.11;99637.95;1689343;83;24555;-85
2021/11/10 01:30:18;;;;;;;;;;;;;;;4.37;79.11;99640.16;1681331;84;21965;-85
2021/11/10 01:32:45;;;;;;;;;;;;;;;4.39;79.11;99644.44;1689572;83;26220;-85
2021/11/10 01:35:11;;;;;;;;;;;;;;;4.38;79.10;99639.28;1705075;83;24696;-85
2021/11/10 01:37:40;;;;;;;;;;;;;;;4.41;79.11;99638.78;1707174;84;20217;-85
2021/11/10 01:40:10;;;;;;;;;;;;;;;4.44;79.11;99634.80;1707148;82;24813;-85
2021/11/10 01:42:38;;;;;;;;;;;;;;;4.51;79.14;99625.98;1707021;84;22206;-85
2021/11/10 01:45:04;;;;;;;;;;;;;;;4.52;79.14;99623.80;1707127;84;25980;-85
2021/11/10 01:47:30;;;;;;;;;;;;;;;4.55;79.13;99623.70;1707114;83;24395;-86
2021/11/10 01:49:57;;;;;;;;;;;;;;;4.58;79.15;99626.20;1706981;82;20249;-86
2021/11/10 01:52:23;;;;;;;;;;;;;;;4.66;79.14;99624.71;1707133;82;24744;-85
2021/11/10 01:54:50;;;;;;;;;;;;;;;4.68;79.19;99621.64;1707072;82;21924;-85
2021/11/10 01:57:16;;;;;;;;;;;;;;;4.58;79.16;99626.67;1706697;84;25983;-85
2021/11/10 01:59:44;;;;;;;;;;;;;;;4.58;79.15;99621.02;1707560;82;24468;-85
2021/11/10 02:02:13;;;;;;;;;;;;;;;4.57;79.15;99615.89;1707141;83;20495;-86
2021/11/10 02:04:40;;;;;;;;;;;;;;;4.57;79.15;99603.78;1705352;83;24717;-85
2021/11/10 02:07:06;;;;;;;;;;;;;;;4.57;79.15;99602.94;1707070;83;21952;-85
2021/11/10 02:09:32;;;;;;;;;;;;;;;4.58;79.15;99608.05;1706979;84;25936;-85
2021/11/10 02:11:59;;;;;;;;;;;;;;;4.65;79.14;99607.45;1704048;83;24415;-86
2021/11/10 02:14:27;;;;;;;;;;;;;;;4.69;79.14;99608.23;1673438;84;20269;-86
2021/11/10 02:16:54;;;;;;;;;;;;;;;4.79;79.16;99605.79;1672510;84;24964;-86
2021/11/10 02:19:22;;;;;;;;;;;;;;;4.87;79.18;99598.19;1676475;83;21966;-86
2021/11/10 02:21:51;;;;;;;;;;;;;;;4.91;79.19;99600.27;1676208;84;26044;-85
2021/11/10 02:24:20;;;;;;;;;;;;;;;4.91;79.21;99598.97;1674911;84;25245;-85
2021/11/10 02:26:46;;;;;;;;;;;;;;;4.93;79.21;99595.86;1673042;83;20233;-85
2021/11/10 02:29:21;;;;;;;;;;;;;;;4.81;79.21;99587.13;1672890;84;25403;-85
2021/11/10 02:31:48;;;;;;;;;;;;;;;4.71;79.16;99571.43;1671636;84;22136;-85
2021/11/10 02:34:14;;;;;;;;;;;;;;;4.72;79.12;99557.58;1675003;83;26162;-86
2021/11/10 02:36:41;;;;;;;;;;;;;;;4.73;79.12;99559.28;1676891;84;24501;-86
2021/11/10 02:39:09;;;;;;;;;;;;;;;4.75;79.11;99547.10;1674058;84;20213;-85
2021/11/10 02:41:36;;;;;;;;;;;;;;;4.69;79.09;99553.79;1678900;84;24829;-85
2021/11/10 02:44:05;;;;;;;;;;;;;;;4.70;79.07;99542.50;1671735;84;21982;-86
2021/11/10 02:46:30;;;;;;;;;;;;;;;4.72;79.09;99545.91;1673313;84;26017;-85
2021/11/10 02:48:58;;;;;;;;;;;;;;;4.78;79.08;99541.84;1676070;84;25333;-86
2021/11/10 02:51:24;;;;;;;;;;;;;;;4.86;79.09;99538.13;1673287;84;20208;-85
2021/11/10 02:53:50;;;;;;;;;;;;;;;4.89;79.11;99529.42;1673558;84;24828;-85
2021/11/10 02:56:16;;;;;;;;;;;;;;;4.92;79.12;99528.02;1676444;84;23010;-86
2021/11/10 02:58:43;;;;;;;;;;;;;;;4.97;79.11;99520.50;1677048;84;26704;-86
2021/11/10 03:01:09;;;;;;;;;;;;;;;4.99;79.14;99521.77;1677273;84;25227;-85
2021/11/10 03:03:35;;;;;;;;;;;;;;;5.01;79.14;99522.13;1678435;84;20355;-86
2021/11/10 03:06:01;;;;;;;;;;;;;;;5.01;79.13;99522.13;1676564;84;24738;-86
2021/11/10 03:08:27;;;;;;;;;;;;;;;5.00;79.12;99517.84;1675128;84;21965;-85
2021/11/10 03:10:53;;;;;;;;;;;;;;;5.03;79.10;99509.09;1674913;84;26034;-85
2021/11/10 03:13:22;;;;;;;;;;;;;;;5.04;79.09;99508.20;1689545;83;24600;-85
2021/11/10 03:15:49;;;;;;;;;;;;;;;5.04;79.06;99508.20;1703269;83;20486;-85
2021/11/10 03:18:19;;;;;;;;;;;;;;;5.06;79.05;99510.31;1687572;84;24764;-86
2021/11/10 03:20:43;;;;;;;;;;;;;;;5.10;79.03;99508.02;1686686;83;22009;-86
2021/11/10 03:23:10;;;;;;;;;;;;;;;5.13;79.00;99507.91;1690828;84;26303;-86
2021/11/10 03:25:36;;;;;;;;;;;;;;;5.20;78.99;99503.39;1696942;84;24417;-86
2021/11/10 03:28:02;;;;;;;;;;;;;;;5.23;78.96;99498.98;1700025;83;20362;-85
2021/11/10 03:30:33;;;;;;;;;;;;;;;5.25;78.95;99504.95;1710361;82;24705;-86
2021/11/10 03:33:02;;;;;;;;;;;;;;;5.31;78.90;99500.02;1721349;82;22811;-86
2021/11/10 03:35:31;;;;;;;;;;;;;;;5.37;78.89;99503.27;1696958;83;25952;-86
2021/11/10 03:37:57;;;;;;;;;;;;;;;5.39;78.90;99510.57;1700677;83;24623;-86
2021/11/10 03:40:23;;;;;;;;;;;;;;;5.42;78.85;99502.67;1696378;83;20258;-86
2021/11/10 03:42:49;;;;;;;;;;;;;;;5.42;78.82;99503.97;1695288;83;24861;-86
2021/11/10 03:45:15;;;;;;;;;;;;;;;5.50;78.79;99502.44;1719232;82;22114;-86
2021/11/10 03:47:41;;;;;;;;;;;;;;;5.52;78.77;99501.92;1683715;84;26031;-86
2021/11/10 03:50:08;;;;;;;;;;;;;;;5.54;78.72;99497.54;1690850;84;24260;-85
2021/11/10 03:52:34;;;;;;;;;;;;;;;5.57;78.70;99503.91;1703414;82;20327;-86
2021/11/10 03:55:00;;;;;;;;;;;;;;;5.64;78.67;99505.42;1700908;83;25920;-85
2021/11/10 03:57:29;;;;;;;;;;;;;;;5.72;78.64;99510.38;1703180;83;22712;-86
2021/11/10 03:59:55;;;;;;;;;;;;;;;5.77;78.59;99511.07;1703616;83;26044;-86
2021/11/10 04:02:22;;;;;;;;;;;;;;;5.83;78.56;99509.58;1703198;83;24404;-86
2021/11/10 04:04:48;;;;;;;;;;;;;;;5.84;78.51;99513.84;1704333;82;20237;-85
2021/11/10 04:07:14;;;;;;;;;;;;;;;5.86;78.46;99517.25;1701592;83;20250;-85
2021/11/10 04:09:40;;;;;;;;;;;;;;;5.88;78.42;99520.24;1714278;82;22047;-85
2021/11/10 04:12:06;;;;;;;;;;;;;;;5.92;78.38;99520.13;1718956;82;25960;-86
2021/11/10 04:14:32;;;;;;;;;;;;;;;5.95;78.33;99523.91;1680346;84;24443;-85
2021/11/10 04:17:02;;;;;;;;;;;;;;;5.99;78.26;99524.22;1680029;84;20187;-85
2021/11/10 04:19:28;;;;;;;;;;;;;;;6.03;78.21;99527.11;1706304;84;24835;-86
2021/11/10 04:21:54;;;;;;;;;;;;;;;6.02;78.14;99532.75;1719261;83;21969;-86
2021/11/10 04:24:20;;;;;;;;;;;;;;;6.00;78.06;99531.94;1683565;84;25960;-85
2021/11/10 04:26:47;;;;;;;;;;;;;;;6.00;77.99;99528.05;1706557;83;26264;-85
2021/11/10 04:29:13;;;;;;;;;;;;;;;6.01;77.93;99530.20;1708542;82;20485;-86
2021/11/10 04:31:39;;;;;;;;;;;;;;;6.03;77.85;99534.91;1706372;83;25551;-86
2021/11/10 04:34:07;;;;;;;;;;;;;;;6.03;77.77;99529.70;1709016;83;20262;-86
2021/11/10 04:36:33;;;;;;;;;;;;;;;6.05;77.69;99526.62;1686428;84;26025;-85
2021/11/10 04:38:59;;;;;;;;;;;;;;;6.06;77.65;99518.75;1706802;83;24552;-86
2021/11/10 04:41:31;;;;;;;;;;;;;;;6.07;77.57;99516.55;1678422;84;20234;-86
2021/11/10 04:43:57;;;;;;;;;;;;;;;6.08;77.51;99518.70;1670804;84;24645;-86
2021/11/10 04:46:29;;;;;;;;;;;;;;;6.08;77.41;99510.91;1706288;84;22040;-86
2021/11/10 04:48:51;;;;;;;;;;;;;;;6.09;77.35;99508.72;1705899;83;25579;-86
2021/11/10 04:51:24;;;;;;;;;;;;;;;6.04;77.29;99504.98;1680244;84;24541;-86
2021/11/10 04:53:51;;;;;;;;;;;;;;;6.03;77.22;99499.38;1706216;84;20206;-86
2021/11/10 04:56:20;;;;;;;;;;;;;;;5.96;77.12;99509.57;1680945;84;24772;-86
2021/11/10 04:58:47;;;;;;;;;;;;;;;5.92;77.01;99507.14;1680130;84;22212;-85
2021/11/10 05:01:26;;;;;;;;;;;;;;;5.89;76.95;99506.80;1705269;83;26003;-85
2021/11/10 05:03:53;;;;;;;;;;;;;;;5.83;76.86;99505.67;1676562;84;24625;-85
2021/11/10 05:06:23;;;;;;;;;;;;;;;5.79;76.79;99497.56;1676045;84;20242;-86
2021/11/10 05:08:52;;;;;;;;;;;;;;;5.78;76.73;99501.91;1706614;83;24711;-85
2021/11/10 05:11:19;;;;;;;;;;;;;;;5.81;76.64;99503.57;1705835;83;22067;-85
2021/11/10 05:13:45;;;;;;;;;;;;;;;5.77;76.59;99503.28;1708159;83;26051;-85
2021/11/10 05:16:11;;;;;;;;;;;;;;;5.79;76.55;99500.16;1704236;83;24470;-85
2021/11/10 05:18:39;;;;;;;;;;;;;;;5.81;76.50;99490.14;1708080;83;20281;-85
2021/11/10 05:21:05;;;;;;;;;;;;;;;5.80;76.45;99491.48;1707550;83;24826;-85
2021/11/10 05:23:32;;;;;;;;;;;;;;;5.79;76.41;99490.63;1702936;83;22115;-85
2021/11/10 05:25:58;;;;;;;;;;;;;;;5.86;76.36;99490.83;1704281;83;26064;-85
2021/11/10 05:28:24;;;;;;;;;;;;;;;5.91;76.31;99482.05;1708327;83;24453;-85
2021/11/10 05:30:51;;;;;;;;;;;;;;;5.96;76.26;99485.34;1705353;83;20218;-85
2021/11/10 05:33:17;;;;;;;;;;;;;;;5.98;76.23;99490.89;1710832;82;24798;-85
2021/11/10 05:35:43;;;;;;;;;;;;;;;5.95;76.19;99485.78;1703406;83;22127;-86
2021/11/10 05:38:09;;;;;;;;;;;;;;;5.98;76.16;99483.10;1703384;82;21076;-85
2021/11/10 05:40:36;;;;;;;;;;;;;;;5.99;76.09;99482.20;1705453;82;24392;-85
2021/11/10 05:43:05;;;;;;;;;;;;;;;5.93;76.05;99478.97;1712954;83;20539;-85
2021/11/10 05:45:33;;;;;;;;;;;;;;;5.88;75.98;99481.72;1713860;82;24764;-84
2021/11/10 05:47:59;;;;;;;;;;;;;;;5.82;75.94;99479.30;1712823;83;22085;-86
2021/11/10 05:50:25;;;;;;;;;;;;;;;5.81;75.86;99476.30;1707412;83;25937;-85
2021/11/10 05:52:51;;;;;;;;;;;;;;;5.84;75.83;99482.23;1710714;82;20252;-87
2021/11/10 05:55:17;;;;;;;;;;;;;;;5.88;75.81;99477.83;1707392;82;20511;-85
2021/11/10 05:57:44;;;;;;;;;;;;;;;5.91;75.77;99478.16;1703502;82;24148;-85
2021/11/10 06:00:12;;;;;;;;;;;;;;;5.89;75.72;99482.95;1714087;83;21963;-85
2021/11/10 06:02:38;;;;;;;;;;;;;;;5.84;75.67;99479.62;1672827;82;26361;-85
2021/11/10 06:05:05;;;;;;;;;;;;;;;5.89;75.62;99486.02;1710038;82;24510;-85
2021/11/10 06:07:31;;;;;;;;;;;;;;;5.91;75.59;99485.50;1708062;82;20244;-85
2021/11/10 06:09:57;;;;;;;;;;;;;;;5.90;75.54;99487.70;1711294;82;24918;-85
2021/11/10 06:12:23;;;;;;;;;;;;;;;5.91;75.50;99492.44;1709479;83;20297;-86
2021/11/10 06:14:49;;;;;;;;;;;;;;;5.86;75.47;99492.13;1713151;83;26010;-85
2021/11/10 06:17:15;;;;;;;;;;;;;;;5.92;75.43;99501.94;1711343;82;24420;-85
2021/11/10 06:19:41;;;;;;;;;;;;;;;5.95;75.39;99501.82;1715908;83;20221;-86
2021/11/10 06:22:07;;;;;;;;;;;;;;;5.97;75.34;99504.78;1708789;82;24804;-86
2021/11/10 06:24:33;;;;;;;;;;;;;;;5.88;75.29;99499.91;1713519;82;22012;-86
2021/11/10 06:27:00;;;;;;;;;;;;;;;5.80;75.21;99506.61;1715761;82;26776;-86
2021/11/10 06:29:26;;;;;;;;;;;;;;;5.80;75.14;99498.82;1715433;82;24423;-86
2021/11/10 06:31:52;;;;;;;;;;;;;;;5.88;75.11;99493.41;1715214;82;20248;-86
2021/11/10 06:34:18;;;;;;;;;;;;;;;5.95;75.06;99494.03;1715861;82;24796;-86
2021/11/10 06:36:47;;;;;;;;;;;;;;;5.94;75.02;99493.66;1717165;82;22864;-86
2021/11/10 06:39:13;;;;;;;;;;;;;;;5.97;74.99;99495.69;1714452;83;25947;-86
2021/11/10 06:41:41;;;;;;;;;;;;;;;6.05;74.96;99500.63;1714071;82;25372;-86
2021/11/10 06:44:07;;;;;;;;;;;;;;;6.11;74.94;99501.24;1716631;82;20241;-86
2021/11/10 06:46:33;;;;;;;;;;;;;;;6.16;74.92;99499.36;1686988;83;24681;-86
2021/11/10 06:49:02;;;;;;;;;;;;;;;6.17;74.88;99496.28;1709669;82;22129;-86
2021/11/10 06:51:28;;;;;;;;;;;;;;;6.17;74.86;99505.37;1701802;82;25947;-86
2021/11/10 06:53:54;;;;;;;;;;;;;;;6.20;74.83;99505.29;1697680;84;24493;-86
2021/11/10 06:56:20;;;;;;;;;;;;;;;6.26;74.81;99503.78;1697548;83;20330;-86
2021/11/10 06:58:49;;;;;;;;;;;;;;;6.35;74.80;99504.74;1699209;84;25528;-86
2021/11/10 07:01:19;;;;;;;;;;;;;;;6.36;74.76;99503.00;1699507;83;21983;-86
2021/11/10 07:03:48;;;;;;;;;;;;;;;6.38;74.72;99511.60;1696915;84;25710;-86
2021/11/10 07:06:20;;;;;;;;;;;;;;;6.47;74.69;99513.86;1700304;83;25288;-86
2021/11/10 07:08:51;;;;;;;;;;;;;;;6.51;74.65;99509.79;1700093;84;20271;-86
2021/11/10 07:11:17;;;;;;;;;;;;;;;6.58;74.63;99507.38;1699346;84;24708;-86
2021/11/10 07:13:44;;;;;;;;;;;;;;;6.66;74.56;99505.32;1697502;83;21961;-86
2021/11/10 07:16:11;;;;;;;;;;;;;;;6.74;74.51;99498.55;1696669;83;25952;-86
2021/11/10 07:18:37;;;;;;;;;;;;;;;6.83;74.45;99498.19;1696547;83;25425;-86
2021/11/10 07:21:03;;;;;;;;;;;;;;;6.89;74.40;99491.45;1697207;84;20767;-86
2021/11/10 07:23:32;;;;;;;;;;;;;;;6.96;74.34;99490.78;1697784;84;25716;-86
2021/11/10 07:25:58;;;;;;;;;;;;;;;7.01;74.27;99488.39;1680155;84;22007;-86
2021/11/10 07:28:24;;;;;;;;;;;;;;;7.07;74.23;99484.26;1677534;85;26647;-85
2021/11/10 07:30:53;;;;;;;;;;;;;;;7.12;74.15;99486.23;1704946;83;24431;-85
2021/11/10 07:33:21;;;;;;;;;;;;;;;7.18;74.11;99473.42;1680494;84;20166;-85
2021/11/10 07:35:47;;;;;;;;;;;;;;;7.18;74.01;99476.02;1698714;83;24866;-86
2021/11/10 07:38:14;;;;;;;;;;;;;;;7.19;73.93;99476.42;1697532;84;20350;-86
2021/11/10 07:40:40;;;;;;;;;;;;;;;7.22;73.86;99475.44;1695963;83;26081;-85
2021/11/10 07:43:06;;;;;;;;;;;;;;;7.24;73.80;99469.28;1698654;84;24436;-85
2021/11/10 07:45:35;;;;;;;;;;;;;;;7.29;73.73;99467.79;1697440;83;20232;-86
2021/11/10 07:48:02;;;;;;;;;;;;;;;7.34;73.65;99467.15;1696281;84;24285;-86
2021/11/10 07:50:29;;;;;;;;;;;;;;;7.37;73.58;99458.75;1693953;84;22871;-86
2021/11/10 07:52:55;;;;;;;;;;;;;;;7.45;73.51;99463.66;1698564;84;26299;-86
2021/11/10 07:55:21;;;;;;;;;;;;;;;7.49;73.45;99461.31;1699281;83;23829;-86
2021/11/10 07:57:47;;;;;;;;;;;;;;;7.53;73.38;99462.42;1684208;84;20325;-85
2021/11/10 08:00:18;;;;;;;;;;;;;;;7.58;73.34;99454.89;1710687;82;24711;-86
2021/11/10 08:02:44;;;;;;;;;;;;;;;7.61;73.29;99455.60;1710126;82;22050;-85
2021/11/10 08:05:12;;;;;;;;;;;;;;;7.65;73.22;99453.25;1708566;83;25929;-86
2021/11/10 08:07:38;;;;;;;;;;;;;;;7.70;73.17;99447.39;1710311;82;24524;-85
2021/11/10 08:10:05;;;;;;;;;;;;;;;7.77;73.09;99447.53;1710007;83;20235;-86
2021/11/10 08:12:32;;;;;;;;;;;;;;;7.84;73.01;99448.98;1705213;82;24803;-85
2021/11/10 08:14:58;;;;;;;;;;;;;;;7.88;72.95;99437.50;1705042;82;22135;-86
2021/11/10 08:17:27;;;;;;;;;;;;;;;7.96;72.86;99445.01;1711166;82;26018;-86
2021/11/10 08:19:53;;;;;;;;;;;;;;;8.01;72.78;99438.28;1709259;82;24448;-86
2021/11/10 08:22:19;;;;;;;;;;;;;;;8.06;72.69;99438.48;1708950;82;20211;-86
2021/11/10 08:24:48;;;;;;;;;;;;;;;8.11;72.62;99438.27;1713407;82;20263;-87
2021/11/10 08:27:14;;;;;;;;;;;;;;;8.16;72.53;99431.94;1715584;82;22106;-86
2021/11/10 08:29:40;;;;;;;;;;;;;;;8.24;72.46;99430.28;1706878;83;26110;-86
2021/11/10 08:32:07;;;;;;;;;;;;;;;8.27;72.38;99427.09;1711654;83;25082;-86
2021/11/10 08:34:36;;;;;;;;;;;;;;;8.30;72.32;99424.83;1707167;83;20598;-86
2021/11/10 08:37:03;;;;;;;;;;;;;;;8.36;72.23;99428.02;1708261;82;24790;-86
2021/11/10 08:39:29;;;;;;;;;;;;;;;8.43;72.13;99423.38;1717436;81;21930;-86
2021/11/10 08:41:55;;;;;;;;;;;;;;;8.46;72.08;99428.89;1712613;83;26190;-86
2021/11/10 08:44:21;;;;;;;;;;;;;;;8.53;71.96;99425.09;1707615;82;24498;-86
2021/11/10 08:46:47;;;;;;;;;;;;;;;8.61;71.87;99415.17;1709908;82;20235;-86
2021/11/10 08:49:13;;;;;;;;;;;;;;;8.67;71.82;99418.31;1713566;83;24726;-86
2021/11/10 08:51:39;;;;;;;;;;;;;;;8.74;71.75;99414.52;1712043;83;21970;-86
2021/11/10 08:54:06;;;;;;;;;;;;;;;8.83;71.64;99412.41;1710650;82;25976;-86
2021/11/10 08:56:33;;;;;;;;;;;;;;;8.89;71.55;99410.81;1713242;82;24493;-86
2021/11/10 08:59:00;;;;;;;;;;;;;;;8.95;71.51;99410.50;1705101;83;20265;-87
2021/11/10 09:01:26;;;;;;;;;;;;;;;8.99;71.45;99399.02;1703469;82;24826;-87
2021/11/10 09:03:56;;;;;;;;;;;;;;;9.06;71.36;99405.15;1696009;83;22226;-86
2021/11/10 09:06:24;;;;;;;;;;;;;;;9.14;71.25;99404.34;1712867;82;26179;-86
2021/11/10 09:08:50;;;;;;;;;;;;;;;9.20;71.17;99400.58;1698649;82;24378;-86
2021/11/10 09:11:19;;;;;;;;;;;;;;;9.27;71.07;99399.37;1700038;82;20216;-86
2021/11/10 09:13:46;;;;;;;;;;;;;;;9.30;71.01;99390.06;1703420;83;24778;-86
2021/11/10 09:16:12;;;;;;;;;;;;;;;9.38;70.93;99396.23;1716936;82;21889;-86
2021/11/10 09:18:39;;;;;;;;;;;;;;;9.46;70.82;99395.38;1705349;82;25974;-86
2021/11/10 09:21:06;;;;;;;;;;;;;;;9.52;70.69;99391.14;1711508;82;24402;-86
2021/11/10 09:23:32;;;;;;;;;;;;;;;9.56;70.62;99385.69;1713523;81;20467;-86
2021/11/10 09:26:00;;;;;;;;;;;;;;;9.62;70.54;99385.84;1719106;82;25764;-86
2021/11/10 09:28:27;;;;;;;;;;;;;;;9.65;70.43;99381.28;1712924;82;21921;-86
2021/11/10 09:30:55;;;;;;;;;;;;;;;9.72;70.33;99377.91;1681673;82;26741;-86
2021/11/10 09:33:23;;;;;;;;;;;;;;;9.80;70.22;99379.68;1721084;82;25336;-85
2021/11/10 09:35:51;;;;;;;;;;;;;;;9.89;70.08;99376.58;1725681;82;20502;-85
2021/11/10 09:38:18;;;;;;;;;;;;;;;9.95;69.91;99369.73;1715948;82;24804;-85
2021/11/10 09:40:45;;;;;;;;;;;;;;;10.02;69.83;99378.95;1715175;82;21611;-86
2021/11/10 09:43:13;;;;;;;;;;;;;;;10.07;69.70;99378.70;1719485;82;25827;-86
2021/11/10 09:45:39;;;;;;;;;;;;;;;10.14;69.58;99371.38;1718255;82;24458;-86
2021/11/10 09:48:07;;;;;;;;;;;;;;;10.23;69.45;99370.45;1715932;82;20321;-86
2021/11/10 09:50:34;;;;;;;;;;;;;;;10.31;69.31;99362.20;1714644;82;25000;-86
2021/11/10 09:53:04;;;;;;;;;;;;;;;10.37;69.17;99359.23;1715419;82;21922;-86
2021/11/10 09:55:30;;;;;;;;;;;;;;;10.43;69.03;99346.66;1712156;82;26044;-86
2021/11/10 09:57:57;;;;;;;;;;;;;;;10.45;68.87;99347.44;1718528;81;24414;-86
2021/11/10 10:00:25;;;;;;;;;;;;;;;10.50;68.69;99343.25;1713584;82;20350;-85
2021/11/10 10:02:51;;;;;;;;;;;;;;;10.59;68.50;99345.81;1711011;82;24915;-86
2021/11/10 10:05:19;;;;;;;;;;;;;;;10.66;68.29;99347.17;1715124;82;22043;-86
2021/11/10 10:07:54;;;;;;;;;;;;;;;10.70;68.10;99335.59;1716461;82;26141;-86
2021/11/10 10:10:20;;;;;;;;;;;;;;;10.75;67.89;99338.33;1713312;82;24403;-86
2021/11/10 10:12:48;;;;;;;;;;;;;;;10.79;67.68;99333.79;1712101;82;20255;-86
2021/11/10 10:15:15;;;;;;;;;;;;;;;10.84;67.50;99334.38;1708526;82;24713;-86
2021/11/10 10:17:42;;;;;;;;;;;;;;;10.90;67.29;99330.09;1713037;82;21938;-86
2021/11/10 10:20:27;;;;;;;;;;;;;;;10.95;67.15;99330.68;1716507;82;26076;-87
2021/11/10 10:22:53;;;;;;;;;;;;;;;10.99;67.00;99324.33;1718142;82;24409;-85
2021/11/10 10:25:20;;;;;;;;;;;;;;;11.09;66.75;99326.79;1696256;83;20770;-85
2021/11/10 10:27:54;;;;;;;;;;;;;;;11.13;66.57;99326.98;1697983;83;24727;-85
2021/11/10 10:30:31;;;;;;;;;;;;;;;11.17;66.35;99315.87;1696287;83;21992;-86
2021/11/10 10:33:02;;;;;;;;;;;;;;;11.21;66.17;99315.61;1685034;84;26026;-85
2021/11/10 10:35:30;;;;;;;;;;;;;;;11.28;65.98;99314.79;1706488;83;25268;-86
2021/11/10 10:37:56;;;;;;;;;;;;;;;11.29;65.78;99312.05;1712665;83;20258;-85
2021/11/10 10:40:22;;;;;;;;;;;;;;;11.30;65.57;99307.66;1711713;83;24926;-85
2021/11/10 10:42:49;;;;;;;;;;;;;;;11.31;65.40;99308.05;1705918;83;22867;-85
2021/11/10 10:45:34;;;;;;;;;;;;;;;11.32;65.23;99307.96;1711246;83;25942;-85
2021/11/10 10:48:01;;;;;;;;;;;;;;;11.37;65.04;99308.15;1711825;83;24425;-86
2021/11/10 10:50:29;;;;;;;;;;;;;;;11.42;64.86;99308.25;1715574;83;21222;-86
2021/11/10 10:52:55;;;;;;;;;;;;;;;11.45;64.72;99305.47;1711921;83;25521;-86
2021/11/10 10:55:32;;;;;;;;;;;;;;;11.49;64.58;99295.63;1712147;83;22105;-86
2021/11/10 10:57:58;;;;;;;;;;;;;;;11.59;64.40;99301.55;1715024;82;26061;-86
2021/11/10 11:00:26;;;;;;;;;;;;;;;11.68;64.19;99299.67;1716713;83;25062;-86
2021/11/10 11:02:52;;;;;;;;;;;;;;;11.73;64.01;99306.81;1717281;83;20184;-86
2021/11/10 11:05:23;;;;;;;;;;;;;;;11.80;63.80;99302.52;1713269;83;25358;-86
2021/11/10 11:07:49;;;;;;;;;;;;;;;11.82;63.63;99292.32;1708625;83;22058;-86
2021/11/10 11:10:16;;;;;;;;;;;;;;;11.92;63.48;99297.84;1715006;83;25972;-86
2021/11/10 11:12:50;;;;;;;;;;;;;;;12.00;63.37;99292.48;1717635;83;24606;-85
2021/11/10 11:15:25;;;;;;;;;;;;;;;12.05;63.16;99278.64;1711111;82;20491;-86
2021/11/10 11:17:47;;;;;;;;;;;;;;;12.05;62.90;99284.34;1713197;83;24300;-86
2021/11/10 11:20:15;;;;;;;;;;;;;;;12.04;62.72;99282.66;1709460;83;21989;-86
2021/11/10 11:22:44;;;;;;;;;;;;;;;12.05;62.56;99279.95;1719074;83;26481;-86
2021/11/10 11:25:14;;;;;;;;;;;;;;;12.08;62.42;99273.19;1710871;82;24407;-86
2021/11/10 11:27:42;;;;;;;;;;;;;;;12.07;62.22;99272.80;1713738;83;20240;-86
2021/11/10 11:30:12;;;;;;;;;;;;;;;12.12;62.03;99273.82;1655965;83;20802;-86
2021/11/10 11:32:45;;;;;;;;;;;;;;;12.19;61.88;99263.79;1715226;83;22152;-86
2021/11/10 11:35:16;;;;;;;;;;;;;;;12.25;61.78;99266.88;1710576;83;26020;-85
2021/11/10 11:37:43;;;;;;;;;;;;;;;12.31;61.67;99261.70;1717046;83;24406;-85
2021/11/10 11:40:12;;;;;;;;;;;;;;;12.38;61.58;99263.02;1710559;83;20230;-85
2021/11/10 11:42:38;;;;;;;;;;;;;;;12.47;61.51;99255.84;1713928;83;24816;-86
2021/11/10 11:45:05;;;;;;;;;;;;;;;12.50;61.35;99251.23;1709058;83;21873;-85
2021/11/10 11:47:31;;;;;;;;;;;;;;;12.58;61.19;99250.75;1712288;83;26073;-85
2021/11/10 11:50:04;;;;;;;;;;;;;;;12.59;61.03;99251.12;1713811;83;24675;-85
2021/11/10 11:52:32;;;;;;;;;;;;;;;12.61;60.90;99249.22;1712893;83;20202;-85
2021/11/10 11:55:00;;;;;;;;;;;;;;;12.66;60.77;99249.76;1711927;83;25647;-85
2021/11/10 11:57:29;;;;;;;;;;;;;;;12.69;60.65;99247.42;1710677;83;22735;-85
2021/11/10 11:59:57;;;;;;;;;;;;;;;12.66;60.50;99234.00;1709053;83;25959;-84
2021/11/10 12:02:31;;;;;;;;;;;;;;;12.68;60.33;99236.07;1708374;83;24647;-85
2021/11/10 12:04:57;;;;;;;;;;;;;;;12.78;60.19;99236.30;1709561;82;20459;-86
2021/11/10 12:07:45;;;;;;;;;;;;;;;12.86;60.04;99227.45;1712831;82;25497;-86
2021/11/10 12:10:24;;;;;;;;;;;;;;;12.92;59.85;99226.58;1713325;83;22592;-86
2021/11/10 12:12:55;;;;;;;;;;;;;;;12.89;59.58;99225.45;1708174;83;25204;-86
2021/11/10 12:15:21;;;;;;;;;;;;;;;12.86;59.22;99224.83;1693802;81;23963;-86
2021/11/10 12:18:07;;;;;;;;;;;;;;;12.85;59.01;99217.41;1699225;83;20185;-86
2021/11/10 12:20:40;;;;;;;;;;;;;;;12.89;58.85;99216.26;1698521;83;24941;-86
2021/11/10 12:23:06;;;;;;;;;;;;;;;12.92;58.63;99209.50;1696843;83;22178;-86
2021/11/10 12:25:33;;;;;;;;;;;;;;;12.96;58.40;99210.13;1701193;83;26031;-85
2021/11/10 12:27:59;;;;;;;;;;;;;;;12.96;58.17;99204.88;1675666;84;24507;-86
2021/11/10 12:30:28;;;;;;;;;;;;;;;12.98;57.98;99204.31;1676568;84;20225;-85
2021/11/10 12:32:58;;;;;;;;;;;;;;;12.93;57.78;99201.97;1701180;83;25410;-86
2021/11/10 12:35:35;;;;;;;;;;;;;;;12.94;57.56;99201.50;1701020;83;22172;-86
2021/11/10 12:38:06;;;;;;;;;;;;;;;12.96;57.36;99200.47;1683284;84;26043;-86
2021/11/10 12:40:37;;;;;;;;;;;;;;;12.97;57.19;99198.21;1699685;83;24485;-86
2021/11/10 12:43:07;;;;;;;;;;;;;;;13.02;56.99;99191.80;1698429;83;20580;-87
2021/11/10 12:45:35;;;;;;;;;;;;;;;13.00;56.81;99187.95;1695942;83;24798;-86
2021/11/10 12:48:03;;;;;;;;;;;;;;;12.96;56.59;99183.39;1699076;83;22148;-86
2021/11/10 12:50:43;;;;;;;;;;;;;;;12.94;56.41;99177.38;1700428;84;26301;-85
2021/11/10 12:53:10;;;;;;;;;;;;;;;12.91;56.27;99181.55;1701050;83;24493;-87
2021/11/10 12:55:38;;;;;;;;;;;;;;;12.90;56.10;99179.02;1671436;84;20596;-88
2021/11/10 12:58:15;;;;;;;;;;;;;;;12.85;55.93;99179.80;1679886;85;25427;-87